ITY1585 LIRF-LIEE
Flight info
| Callsign | ITY1585 |
|---|---|
| Flight time | 0h 48m |
| Altitude | 31000 |
| Route | ESINO DCT ABIDU DCT DEXUL Q125 KOVAS |
| Aircraft | A20N/M-SDE2E3FGHIRWXY/LB1 |
Departure
| Time | 2026-05-07 09:33 |
|---|---|
| Airport | Rome–Fiumicino Leonardo da Vinci International Airport (LIRF) |
Arrival
| Time | 2026-05-07 10:22 |
|---|---|
| Airport | Cagliari Elmas Airport (LIEE) |
| Time | Latitude | Longitude | Altitude | Speed | Heading |
|---|---|---|---|---|---|
| 2026-05-07 08:58 | 41.79667 | 12.25812 | 16 ft | 0 kts | 115° |
| 2026-05-07 09:23 | 41.79670 | 12.25806 | 16 ft | 2 kts | 116° |
| 2026-05-07 09:23 | 41.79676 | 12.25788 | 16 ft | 2 kts | 115° |
| 2026-05-07 09:23 | 41.79683 | 12.25770 | 16 ft | 2 kts | 118° |
| 2026-05-07 09:24 | 41.79687 | 12.25759 | 16 ft | 0 kts | 117° |
| 2026-05-07 09:24 | 41.79689 | 12.25753 | 16 ft | 0 kts | 66° |
| 2026-05-07 09:24 | 41.79686 | 12.25749 | 16 ft | 0 kts | 21° |
| 2026-05-07 09:24 | 41.79680 | 12.25746 | 16 ft | 0 kts | 25° |
| 2026-05-07 09:27 | 41.79692 | 12.25753 | 16 ft | 3 kts | 25° |
| 2026-05-07 09:28 | 41.79725 | 12.25774 | 16 ft | 7 kts | 27° |
| 2026-05-07 09:28 | 41.79789 | 12.25816 | 16 ft | 12 kts | 26° |
| 2026-05-07 09:28 | 41.79873 | 12.25826 | 16 ft | 12 kts | 359° |
| 2026-05-07 09:28 | 41.79954 | 12.25877 | 16 ft | 13 kts | 28° |
| 2026-05-07 09:29 | 41.80049 | 12.25935 | 16 ft | 15 kts | 24° |
| 2026-05-07 09:29 | 41.80155 | 12.26000 | 16 ft | 17 kts | 23° |
| 2026-05-07 09:29 | 41.80272 | 12.26070 | 16 ft | 18 kts | 25° |
| 2026-05-07 09:29 | 41.80368 | 12.26180 | 16 ft | 18 kts | 68° |
| 2026-05-07 09:30 | 41.80414 | 12.26343 | 16 ft | 18 kts | 69° |
| 2026-05-07 09:30 | 41.80458 | 12.26507 | 15 ft | 18 kts | 73° |
| 2026-05-07 09:30 | 41.80502 | 12.26669 | 15 ft | 18 kts | 70° |
| 2026-05-07 09:30 | 41.80547 | 12.26833 | 14 ft | 18 kts | 70° |
| 2026-05-07 09:31 | 41.80596 | 12.26996 | 14 ft | 18 kts | 54° |
| 2026-05-07 09:31 | 41.80711 | 12.27051 | 13 ft | 18 kts | 1° |
| 2026-05-07 09:31 | 41.80835 | 12.27028 | 13 ft | 18 kts | 339° |
| 2026-05-07 09:31 | 41.80945 | 12.26962 | 13 ft | 15 kts | 310° |
| 2026-05-07 09:32 | 41.80936 | 12.26856 | 13 ft | 0 kts | 248° |
| 2026-05-07 09:32 | 41.80929 | 12.26834 | 13 ft | 19 kts | 249° |
| 2026-05-07 09:33 | 41.80784 | 12.26308 | 15 ft | 98 kts | 247° |
| 2026-05-07 09:33 | 41.80480 | 12.25168 | 23 ft | 159 kts | 251° |
| 2026-05-07 09:33 | 41.80067 | 12.23701 | 487 ft | 172 kts | 249° |
| 2026-05-07 09:33 | 41.79632 | 12.22189 | 1083 ft | 183 kts | 251° |
| 2026-05-07 09:34 | 41.79382 | 12.20467 | 1726 ft | 192 kts | 266° |
| 2026-05-07 09:34 | 41.79315 | 12.18666 | 2388 ft | 198 kts | 267° |
| 2026-05-07 09:34 | 41.79235 | 12.16849 | 3092 ft | 201 kts | 262° |
| 2026-05-07 09:34 | 41.78800 | 12.15074 | 3811 ft | 203 kts | 240° |
| 2026-05-07 09:35 | 41.78018 | 12.13555 | 4560 ft | 203 kts | 227° |
| 2026-05-07 09:35 | 41.77011 | 12.12273 | 5303 ft | 203 kts | 221° |
| 2026-05-07 09:35 | 41.75929 | 12.11056 | 6027 ft | 205 kts | 218° |
| 2026-05-07 09:35 | 41.74805 | 12.09895 | 6764 ft | 206 kts | 217° |
| 2026-05-07 09:36 | 41.73701 | 12.08734 | 7498 ft | 206 kts | 221° |
| 2026-05-07 09:36 | 41.72645 | 12.07460 | 8248 ft | 206 kts | 224° |
| 2026-05-07 09:36 | 41.71614 | 12.06157 | 8980 ft | 205 kts | 224° |
| 2026-05-07 09:36 | 41.70544 | 12.04899 | 9708 ft | 205 kts | 220° |
| 2026-05-07 09:37 | 41.69315 | 12.04001 | 10366 ft | 208 kts | 199° |
| 2026-05-07 09:37 | 41.67848 | 12.03852 | 10803 ft | 224 kts | 175° |
| 2026-05-07 09:37 | 41.66274 | 12.04321 | 11343 ft | 234 kts | 168° |
| 2026-05-07 09:37 | 41.64690 | 12.04897 | 11941 ft | 238 kts | 171° |
| 2026-05-07 09:38 | 41.63060 | 12.05157 | 12547 ft | 239 kts | 186° |
| 2026-05-07 09:38 | 41.61445 | 12.04706 | 13027 ft | 245 kts | 207° |
| 2026-05-07 09:38 | 41.60059 | 12.03394 | 13567 ft | 252 kts | 226° |
| 2026-05-07 09:38 | 41.58841 | 12.01506 | 13700 ft | 280 kts | 232° |
| 2026-05-07 09:39 | 41.57505 | 11.99482 | 13883 ft | 304 kts | 223° |
| 2026-05-07 09:39 | 41.55830 | 11.97595 | 14207 ft | 323 kts | 221° |
| 2026-05-07 09:39 | 41.54083 | 11.95630 | 14615 ft | 338 kts | 221° |
| 2026-05-07 09:39 | 41.52261 | 11.93539 | 15030 ft | 351 kts | 221° |
| 2026-05-07 09:40 | 41.50377 | 11.91419 | 15540 ft | 359 kts | 220° |
| 2026-05-07 09:40 | 41.48356 | 11.89433 | 16224 ft | 363 kts | 216° |
| 2026-05-07 09:40 | 41.46300 | 11.87479 | 16854 ft | 367 kts | 217° |
| 2026-05-07 09:40 | 41.44262 | 11.85459 | 17532 ft | 369 kts | 218° |
| 2026-05-07 09:41 | 41.42239 | 11.83382 | 18174 ft | 371 kts | 219° |
| 2026-05-07 09:41 | 41.40262 | 11.81156 | 18761 ft | 374 kts | 226° |
| 2026-05-07 09:41 | 41.38628 | 11.78461 | 19394 ft | 375 kts | 237° |
| 2026-05-07 09:41 | 41.37420 | 11.75414 | 19996 ft | 378 kts | 246° |
| 2026-05-07 09:42 | 41.36483 | 11.72108 | 20479 ft | 384 kts | 249° |
| 2026-05-07 09:42 | 41.35576 | 11.68752 | 21006 ft | 388 kts | 249° |
| 2026-05-07 09:42 | 41.34670 | 11.65385 | 21562 ft | 391 kts | 249° |
| 2026-05-07 09:42 | 41.33759 | 11.62013 | 22121 ft | 393 kts | 249° |
| 2026-05-07 09:43 | 41.32829 | 11.58583 | 22660 ft | 396 kts | 249° |
| 2026-05-07 09:43 | 41.31891 | 11.55130 | 23193 ft | 398 kts | 249° |
| 2026-05-07 09:43 | 41.30947 | 11.51666 | 23720 ft | 401 kts | 249° |
| 2026-05-07 09:43 | 41.30001 | 11.48208 | 24229 ft | 403 kts | 249° |
| 2026-05-07 09:44 | 41.29045 | 11.44718 | 24724 ft | 405 kts | 249° |
| 2026-05-07 09:44 | 41.28084 | 11.41217 | 25261 ft | 406 kts | 249° |
| 2026-05-07 09:44 | 41.27113 | 11.37686 | 25760 ft | 407 kts | 250° |
| 2026-05-07 09:44 | 41.26145 | 11.34168 | 26247 ft | 408 kts | 249° |
| 2026-05-07 09:45 | 41.25164 | 11.30594 | 26759 ft | 409 kts | 249° |
| 2026-05-07 09:45 | 41.24199 | 11.27072 | 27270 ft | 409 kts | 249° |
| 2026-05-07 09:45 | 41.23231 | 11.23548 | 27694 ft | 410 kts | 250° |
| 2026-05-07 09:45 | 41.22242 | 11.19973 | 28082 ft | 411 kts | 249° |
| 2026-05-07 09:46 | 41.21274 | 11.16466 | 28488 ft | 411 kts | 249° |
| 2026-05-07 09:46 | 41.20292 | 11.12917 | 28978 ft | 408 kts | 250° |
| 2026-05-07 09:46 | 41.19318 | 11.09408 | 29504 ft | 405 kts | 249° |
| 2026-05-07 09:46 | 41.18339 | 11.05889 | 29912 ft | 404 kts | 250° |
| 2026-05-07 09:47 | 41.17376 | 11.02432 | 30231 ft | 404 kts | 250° |
| 2026-05-07 09:47 | 41.16402 | 10.98944 | 30512 ft | 404 kts | 250° |
| 2026-05-07 09:47 | 41.15429 | 10.95457 | 30812 ft | 403 kts | 250° |
| 2026-05-07 09:47 | 41.14452 | 10.91967 | 30969 ft | 403 kts | 250° |
| 2026-05-07 09:48 | 41.13492 | 10.88530 | 30975 ft | 402 kts | 250° |
| 2026-05-07 09:48 | 41.11541 | 10.81580 | 30969 ft | 400 kts | 250° |
| 2026-05-07 09:49 | 41.09605 | 10.74719 | 30980 ft | 401 kts | 250° |
| 2026-05-07 09:49 | 41.07653 | 10.67801 | 30976 ft | 400 kts | 250° |
| 2026-05-07 09:50 | 41.05705 | 10.60944 | 30981 ft | 399 kts | 250° |
| 2026-05-07 09:50 | 41.03750 | 10.54063 | 30969 ft | 399 kts | 250° |
| 2026-05-07 09:51 | 41.01800 | 10.47224 | 30978 ft | 398 kts | 250° |
| 2026-05-07 09:51 | 40.99364 | 10.40674 | 30979 ft | 398 kts | 241° |
| 2026-05-07 09:52 | 40.96079 | 10.34712 | 30987 ft | 403 kts | 232° |
| 2026-05-07 09:52 | 40.92077 | 10.29534 | 30971 ft | 406 kts | 225° |
| 2026-05-07 09:53 | 40.87755 | 10.24690 | 30983 ft | 406 kts | 224° |
| 2026-05-07 09:53 | 40.83456 | 10.19948 | 30974 ft | 405 kts | 224° |
| 2026-05-07 09:54 | 40.79121 | 10.15167 | 30981 ft | 406 kts | 224° |
| 2026-05-07 09:54 | 40.74806 | 10.10410 | 30979 ft | 404 kts | 224° |
| 2026-05-07 09:55 | 40.70506 | 10.05681 | 30977 ft | 403 kts | 224° |
| 2026-05-07 09:55 | 40.66215 | 10.00974 | 30974 ft | 404 kts | 224° |
| 2026-05-07 09:56 | 40.61929 | 9.96270 | 30986 ft | 403 kts | 224° |
| 2026-05-07 09:56 | 40.57646 | 9.91571 | 30979 ft | 402 kts | 224° |
| 2026-05-07 09:57 | 40.53332 | 9.86860 | 30978 ft | 404 kts | 224° |
| 2026-05-07 09:57 | 40.49031 | 9.82163 | 30977 ft | 402 kts | 225° |
| 2026-05-07 09:58 | 40.44742 | 9.77488 | 30978 ft | 402 kts | 224° |
| 2026-05-07 09:58 | 40.40459 | 9.72833 | 30973 ft | 400 kts | 224° |
| 2026-05-07 09:59 | 40.36166 | 9.68175 | 30976 ft | 399 kts | 225° |
| 2026-05-07 09:59 | 40.31902 | 9.63547 | 30973 ft | 399 kts | 224° |
| 2026-05-07 10:00 | 40.27619 | 9.58918 | 30709 ft | 400 kts | 224° |
| 2026-05-07 10:00 | 40.25507 | 9.56635 | 30452 ft | 398 kts | 224° |
| 2026-05-07 10:00 | 40.23383 | 9.54337 | 29986 ft | 397 kts | 223° |
| 2026-05-07 10:00 | 40.21252 | 9.52037 | 29291 ft | 398 kts | 223° |
| 2026-05-07 10:01 | 40.19129 | 9.49751 | 28439 ft | 400 kts | 223° |
| 2026-05-07 10:01 | 40.16962 | 9.47418 | 27680 ft | 400 kts | 222° |
| 2026-05-07 10:01 | 40.14846 | 9.45143 | 27105 ft | 396 kts | 223° |
| 2026-05-07 10:01 | 40.12722 | 9.42863 | 26541 ft | 392 kts | 223° |
| 2026-05-07 10:02 | 40.10640 | 9.40629 | 25948 ft | 390 kts | 222° |
| 2026-05-07 10:02 | 40.08550 | 9.38382 | 25423 ft | 387 kts | 222° |
| 2026-05-07 10:02 | 40.06500 | 9.36183 | 24881 ft | 384 kts | 222° |
| 2026-05-07 10:02 | 40.04436 | 9.33971 | 24340 ft | 382 kts | 221° |
| 2026-05-07 10:03 | 40.02384 | 9.31763 | 23778 ft | 381 kts | 221° |
| 2026-05-07 10:03 | 40.00347 | 9.29578 | 23232 ft | 380 kts | 221° |
| 2026-05-07 10:03 | 39.98311 | 9.27397 | 22695 ft | 379 kts | 221° |
| 2026-05-07 10:03 | 39.96307 | 9.25257 | 22196 ft | 376 kts | 221° |
| 2026-05-07 10:04 | 39.94298 | 9.23113 | 21714 ft | 373 kts | 221° |
| 2026-05-07 10:04 | 39.92276 | 9.20959 | 21211 ft | 371 kts | 221° |
| 2026-05-07 10:04 | 39.90303 | 9.18859 | 20695 ft | 370 kts | 221° |
| 2026-05-07 10:04 | 39.88309 | 9.16782 | 20180 ft | 369 kts | 218° |
| 2026-05-07 10:05 | 39.86130 | 9.14994 | 19683 ft | 369 kts | 210° |
| 2026-05-07 10:05 | 39.83783 | 9.13616 | 19213 ft | 369 kts | 203° |
| 2026-05-07 10:05 | 39.81335 | 9.12640 | 18726 ft | 369 kts | 198° |
| 2026-05-07 10:05 | 39.78866 | 9.11802 | 18244 ft | 367 kts | 197° |
| 2026-05-07 10:06 | 39.76431 | 9.10992 | 17789 ft | 365 kts | 197° |
| 2026-05-07 10:06 | 39.73959 | 9.10171 | 17303 ft | 363 kts | 197° |
| 2026-05-07 10:06 | 39.71543 | 9.09363 | 16822 ft | 362 kts | 197° |
| 2026-05-07 10:06 | 39.69104 | 9.08545 | 16328 ft | 361 kts | 196° |
| 2026-05-07 10:07 | 39.66640 | 9.07839 | 15817 ft | 362 kts | 187° |
| 2026-05-07 10:07 | 39.64150 | 9.08026 | 15320 ft | 365 kts | 169° |
| 2026-05-07 10:07 | 39.61786 | 9.09235 | 14823 ft | 368 kts | 152° |
| 2026-05-07 10:07 | 39.59620 | 9.11001 | 14332 ft | 368 kts | 149° |
| 2026-05-07 10:08 | 39.57503 | 9.12790 | 13845 ft | 366 kts | 148° |
| 2026-05-07 10:08 | 39.55357 | 9.14592 | 13355 ft | 365 kts | 149° |
| 2026-05-07 10:08 | 39.53249 | 9.16342 | 12869 ft | 363 kts | 149° |
| 2026-05-07 10:08 | 39.51117 | 9.18096 | 12380 ft | 361 kts | 149° |
| 2026-05-07 10:09 | 39.49020 | 9.19817 | 11924 ft | 358 kts | 149° |
| 2026-05-07 10:09 | 39.46899 | 9.21555 | 11427 ft | 356 kts | 149° |
| 2026-05-07 10:09 | 39.44845 | 9.23243 | 10994 ft | 353 kts | 149° |
| 2026-05-07 10:09 | 39.42773 | 9.24939 | 10529 ft | 350 kts | 148° |
| 2026-05-07 10:10 | 39.40773 | 9.26583 | 10367 ft | 336 kts | 148° |
| 2026-05-07 10:10 | 39.38845 | 9.28170 | 10254 ft | 321 kts | 148° |
| 2026-05-07 10:10 | 39.36980 | 9.29699 | 10147 ft | 307 kts | 148° |
| 2026-05-07 10:10 | 39.35222 | 9.31143 | 10072 ft | 294 kts | 148° |
| 2026-05-07 10:11 | 39.33525 | 9.32535 | 10006 ft | 282 kts | 148° |
| 2026-05-07 10:11 | 39.31882 | 9.33879 | 9671 ft | 281 kts | 148° |
| 2026-05-07 10:11 | 39.30226 | 9.35229 | 9333 ft | 280 kts | 148° |
| 2026-05-07 10:11 | 39.28587 | 9.36566 | 8995 ft | 278 kts | 147° |
| 2026-05-07 10:12 | 39.26969 | 9.37887 | 8671 ft | 276 kts | 147° |
| 2026-05-07 10:12 | 39.25353 | 9.39206 | 8369 ft | 274 kts | 147° |
| 2026-05-07 10:12 | 39.23748 | 9.40512 | 8060 ft | 272 kts | 146° |
| 2026-05-07 10:12 | 39.22172 | 9.41795 | 7740 ft | 269 kts | 146° |
| 2026-05-07 10:13 | 39.20589 | 9.43086 | 7429 ft | 267 kts | 146° |
| 2026-05-07 10:13 | 39.19031 | 9.44354 | 7123 ft | 265 kts | 146° |
| 2026-05-07 10:13 | 39.17490 | 9.45609 | 6817 ft | 262 kts | 145° |
| 2026-05-07 10:13 | 39.15951 | 9.46859 | 6504 ft | 259 kts | 145° |
| 2026-05-07 10:14 | 39.14359 | 9.47926 | 6166 ft | 260 kts | 162° |
| 2026-05-07 10:14 | 39.12565 | 9.47948 | 5833 ft | 265 kts | 192° |
| 2026-05-07 10:14 | 39.10948 | 9.46832 | 5525 ft | 268 kts | 221° |
| 2026-05-07 10:14 | 39.09916 | 9.44841 | 5208 ft | 269 kts | 250° |
| 2026-05-07 10:15 | 39.09454 | 9.42552 | 4931 ft | 266 kts | 256° |
| 2026-05-07 10:15 | 39.09040 | 9.40249 | 4652 ft | 263 kts | 256° |
| 2026-05-07 10:15 | 39.08616 | 9.37965 | 4372 ft | 261 kts | 255° |
| 2026-05-07 10:15 | 39.08183 | 9.35719 | 4091 ft | 258 kts | 255° |
| 2026-05-07 10:16 | 39.07747 | 9.33501 | 3826 ft | 255 kts | 255° |
| 2026-05-07 10:16 | 39.07311 | 9.31311 | 3568 ft | 252 kts | 255° |
| 2026-05-07 10:16 | 39.06901 | 9.29153 | 3359 ft | 248 kts | 259° |
| 2026-05-07 10:16 | 39.06804 | 9.26977 | 3216 ft | 243 kts | 284° |
| 2026-05-07 10:17 | 39.07532 | 9.25070 | 3094 ft | 234 kts | 319° |
| 2026-05-07 10:17 | 39.08791 | 9.23807 | 2994 ft | 232 kts | 331° |
| 2026-05-07 10:17 | 39.10131 | 9.22616 | 2903 ft | 231 kts | 327° |
| 2026-05-07 10:17 | 39.11364 | 9.21375 | 2819 ft | 222 kts | 325° |
| 2026-05-07 10:18 | 39.12515 | 9.20108 | 2756 ft | 214 kts | 322° |
| 2026-05-07 10:18 | 39.13620 | 9.18833 | 2666 ft | 215 kts | 322° |
| 2026-05-07 10:18 | 39.14732 | 9.17531 | 2418 ft | 215 kts | 322° |
| 2026-05-07 10:18 | 39.15826 | 9.16251 | 2145 ft | 215 kts | 321° |
| 2026-05-07 10:19 | 39.16920 | 9.14972 | 1949 ft | 202 kts | 321° |
| 2026-05-07 10:19 | 39.17932 | 9.13793 | 1651 ft | 192 kts | 321° |
| 2026-05-07 10:19 | 39.18895 | 9.12678 | 1403 ft | 180 kts | 320° |
| 2026-05-07 10:19 | 39.19788 | 9.11644 | 1155 ft | 168 kts | 319° |
| 2026-05-07 10:20 | 39.20624 | 9.10675 | 924 ft | 155 kts | 319° |
| 2026-05-07 10:20 | 39.21394 | 9.09781 | 724 ft | 144 kts | 319° |
| 2026-05-07 10:20 | 39.22144 | 9.08913 | 557 ft | 143 kts | 318° |
| 2026-05-07 10:20 | 39.22879 | 9.08060 | 379 ft | 142 kts | 318° |
| 2026-05-07 10:21 | 39.23609 | 9.07214 | 183 ft | 141 kts | 317° |
| 2026-05-07 10:21 | 39.24331 | 9.06375 | 37 ft | 138 kts | 317° |
| 2026-05-07 10:21 | 39.25010 | 9.05583 | 12 ft | 116 kts | 317° |
| 2026-05-07 10:21 | 39.25515 | 9.04994 | 9 ft | 81 kts | 319° |
| 2026-05-07 10:22 | 39.25906 | 9.04539 | 10 ft | 70 kts | 321° |
| 2026-05-07 10:22 | 39.26088 | 9.04383 | 7 ft | 13 kts | 21° |
| 2026-05-07 10:22 | 39.26135 | 9.04478 | 9 ft | 12 kts | 85° |
| 2026-05-07 10:22 | 39.26118 | 9.04576 | 13 ft | 10 kts | 116° |
| 2026-05-07 10:23 | 39.26055 | 9.04663 | 12 ft | 19 kts | 140° |
| 2026-05-07 10:23 | 39.25922 | 9.04811 | 11 ft | 30 kts | 138° |
| 2026-05-07 10:23 | 39.25742 | 9.05017 | 11 ft | 34 kts | 138° |
| 2026-05-07 10:23 | 39.25571 | 9.05214 | 9 ft | 31 kts | 137° |
| 2026-05-07 10:24 | 39.25438 | 9.05384 | 9 ft | 24 kts | 122° |
| 2026-05-07 10:24 | 39.25392 | 9.05580 | 13 ft | 21 kts | 111° |
| 2026-05-07 10:24 | 39.25296 | 9.05716 | 15 ft | 20 kts | 138° |
| 2026-05-07 10:24 | 39.25199 | 9.05827 | 17 ft | 13 kts | 138° |
| 2026-05-07 10:25 | 39.25146 | 9.05920 | 18 ft | 12 kts | 84° |
| 2026-05-07 10:25 | 39.25194 | 9.06006 | 21 ft | 10 kts | 51° |
| 2026-05-07 10:25 | 39.25232 | 9.06063 | 25 ft | 6 kts | 41° |
| 2026-05-07 10:25 | 39.25266 | 9.06047 | 25 ft | 6 kts | 316° |
| 2026-05-07 10:26 | 39.25297 | 9.06014 | 25 ft | 0 kts | 322° |